Time;durP1;ratioP1;P1;durP2;ratioP2;P2;SDS_P1;SDS_P2;PMS_P1;PMS_P2;Temp;Humidity;BMP_temperature;BMP_pressure;BME280_temperature;BME280_humidity;BME280_pressure;Samples;Min_cycle;Max_cycle;Signal;HPM_P1;HPM_P2
2023/07/25 00:00:06;;;;;;;24.00;14.27;;;;;;;26.11;44.96;98935.94;5011736;28;20028;-76
2023/07/25 00:02:32;;;;;;;21.38;12.80;;;;;;;26.34;44.42;98946.34;5013252;28;20386;-76
2023/07/25 00:04:57;;;;;;;21.30;14.00;;;;;;;26.24;44.44;98933.16;5013291;28;20057;-76
2023/07/25 00:07:23;;;;;;;24.15;13.15;;;;;;;26.37;44.21;98944.59;5012598;28;20029;-77
2023/07/25 00:09:48;;;;;;;18.58;12.05;;;;;;;26.05;45.15;98950.03;5012655;28;20029;-76
2023/07/25 00:12:14;;;;;;;19.13;12.70;;;;;;;25.77;45.86;98941.03;5013063;28;20061;-76
2023/07/25 00:14:39;;;;;;;22.50;12.77;;;;;;;25.85;45.65;98945.28;5013255;28;20014;-76
2023/07/25 00:17:05;;;;;;;27.30;12.82;;;;;;;25.58;46.28;98943.59;5011995;28;20397;-76
2023/07/25 00:19:30;;;;;;;20.40;13.05;;;;;;;25.37;47.12;98939.22;5012733;28;20109;-76
2023/07/25 00:21:55;;;;;;;21.55;13.05;;;;;;;24.80;48.61;98930.88;5012835;28;20026;-76
2023/07/25 00:24:21;;;;;;;23.25;13.30;;;;;;;24.73;48.91;98931.78;5012422;28;20052;-76
2023/07/25 00:26:46;;;;;;;20.27;12.60;;;;;;;23.90;51.22;98928.75;5011831;28;20026;-76
2023/07/25 00:29:12;;;;;;;21.48;12.45;;;;;;;23.78;51.85;98926.53;5013075;28;20050;-76
2023/07/25 00:31:37;;;;;;;20.52;12.70;;;;;;;23.51;52.94;98931.13;5012050;28;20029;-76
2023/07/25 00:34:04;;;;;;;22.17;13.40;;;;;;;23.61;52.53;98931.38;5011698;28;20501;-76
2023/07/25 00:36:29;;;;;;;19.55;12.23;;;;;;;23.63;52.54;98938.22;5010825;28;20108;-76
2023/07/25 00:38:55;;;;;;;25.13;13.40;;;;;;;23.67;52.23;98950.41;5012084;28;20095;-76
2023/07/25 00:41:20;;;;;;;23.45;12.80;;;;;;;23.52;52.79;98944.16;5012957;28;20030;-76
2023/07/25 00:43:46;;;;;;;22.23;12.55;;;;;;;23.30;53.32;98942.94;5011473;28;20033;-76
2023/07/25 00:46:11;;;;;;;19.85;11.82;;;;;;;23.12;53.30;98944.84;5011523;28;20064;-76
2023/07/25 00:48:37;;;;;;;19.98;12.63;;;;;;;23.21;53.46;98952.03;5011145;28;20420;-76
2023/07/25 00:51:04;;;;;;;27.55;13.60;;;;;;;23.33;52.90;98962.03;5009742;28;20128;-76
2023/07/25 00:53:30;;;;;;;22.55;13.20;;;;;;;22.95;54.00;98943.09;5012498;28;20542;-76
2023/07/25 00:55:55;;;;;;;26.58;13.00;;;;;;;22.91;54.50;98951.72;5010190;28;20088;-76
2023/07/25 00:58:21;;;;;;;19.77;12.18;;;;;;;22.86;54.82;98943.63;5012281;28;20022;-76
2023/07/25 01:00:46;;;;;;;18.02;11.90;;;;;;;23.17;54.35;98948.41;5012475;28;20021;-76
2023/07/25 01:03:13;;;;;;;18.30;11.90;;;;;;;23.46;53.70;98940.19;5012315;28;20021;-76
2023/07/25 01:05:41;;;;;;;22.17;11.40;;;;;;;24.01;52.17;98944.81;5011499;28;20018;-76
2023/07/25 01:08:07;;;;;;;24.20;11.90;;;;;;;24.31;51.17;98940.91;5010673;28;20516;-76
2023/07/25 01:10:34;;;;;;;19.15;11.75;;;;;;;24.42;50.84;98952.13;5010631;28;20109;-76
2023/07/25 01:13:00;;;;;;;17.88;11.52;;;;;;;24.22;52.09;98950.09;5012120;28;20097;-77
2023/07/25 01:15:27;;;;;;;19.52;13.55;;;;;;;23.53;54.42;98950.66;5011986;28;20148;-76
2023/07/25 01:17:53;;;;;;;19.73;11.48;;;;;;;23.81;53.95;98957.84;5012136;28;20022;-76
2023/07/25 01:20:18;;;;;;;21.23;11.93;;;;;;;23.69;53.89;98947.91;5011450;28;20037;-76
2023/07/25 01:22:45;;;;;;;22.55;12.98;;;;;;;23.20;55.52;98947.56;5010464;28;20033;-76
2023/07/25 01:25:11;;;;;;;19.25;11.52;;;;;;;23.39;55.14;98946.03;5011129;28;20018;-77
2023/07/25 01:27:36;;;;;;;17.27;11.45;;;;;;;23.03;56.00;98950.28;5010546;28;20539;-76
2023/07/25 01:30:03;;;;;;;22.77;12.07;;;;;;;23.18;55.78;98950.84;5010063;28;20072;-76
2023/07/25 01:32:30;;;;;;;25.88;13.68;;;;;;;23.38;55.11;98945.22;5010445;28;20025;-76
2023/07/25 01:34:56;;;;;;;21.48;12.63;;;;;;;23.41;55.17;98950.06;5011649;28;20041;-76
2023/07/25 01:37:21;;;;;;;18.33;11.65;;;;;;;23.03;56.45;98938.09;5010460;28;20040;-76
2023/07/25 01:39:47;;;;;;;19.40;12.18;;;;;;;23.14;56.42;98945.19;5010656;28;20053;-76
2023/07/25 01:42:12;;;;;;;21.77;12.43;;;;;;;23.02;56.38;98951.53;5010493;28;20025;-76
2023/07/25 01:44:38;;;;;;;19.40;12.80;;;;;;;22.77;57.71;98949.88;5011727;28;20465;-76
2023/07/25 01:47:03;;;;;;;19.27;11.60;;;;;;;22.88;57.34;98952.59;5011879;28;20021;-76
2023/07/25 01:49:29;;;;;;;23.27;12.77;;;;;;;23.17;56.57;98949.25;5011611;28;20538;-76
2023/07/25 01:51:54;;;;;;;22.92;12.40;;;;;;;23.47;55.27;98946.69;5010243;28;20029;-76
2023/07/25 01:54:20;;;;;;;19.48;11.57;;;;;;;23.47;55.26;98941.00;5011414;28;20032;-76
2023/07/25 01:56:45;;;;;;;14.32;10.65;;;;;;;22.84;56.97;98951.81;5010068;28;20042;-76
2023/07/25 01:59:11;;;;;;;19.00;11.45;;;;;;;22.51;57.90;98942.97;5011345;28;20056;-76
2023/07/25 02:01:37;;;;;;;20.17;11.30;;;;;;;22.58;57.20;98946.53;5011327;28;20021;-77
2023/07/25 02:04:02;;;;;;;24.63;12.02;;;;;;;22.61;56.82;98941.19;5010173;28;20484;-76
2023/07/25 02:06:28;;;;;;;18.83;12.13;;;;;;;22.64;56.60;98944.00;5010826;28;20104;-76
2023/07/25 02:08:53;;;;;;;32.88;13.77;;;;;;;22.50;56.83;98959.25;5011444;28;20053;-76
2023/07/25 02:11:19;;;;;;;22.15;12.80;;;;;;;22.49;56.73;98953.97;5010809;28;20481;-76
2023/07/25 02:13:44;;;;;;;19.00;11.90;;;;;;;22.17;57.46;98953.16;5009599;28;20030;-76
2023/07/25 02:16:10;;;;;;;27.20;13.90;;;;;;;21.86;58.23;98951.09;5010354;28;20080;-76
2023/07/25 02:18:35;;;;;;;32.80;13.68;;;;;;;21.78;58.70;98958.13;5010589;28;20088;-76
2023/07/25 02:21:01;;;;;;;31.85;12.45;;;;;;;21.78;59.26;98975.22;5011324;28;20485;-76
2023/07/25 02:23:26;;;;;;;24.85;11.60;;;;;;;21.90;58.70;98965.31;5012034;28;20025;-77
2023/07/25 02:25:52;;;;;;;25.88;12.93;;;;;;;22.04;58.31;98964.34;5015294;28;20026;-76
2023/07/25 02:28:17;;;;;;;28.75;14.48;;;;;;;22.07;58.14;98956.97;5015315;28;20060;-76
2023/07/25 02:30:44;;;;;;;17.50;11.85;;;;;;;21.80;58.90;98958.50;5013310;28;20040;-77
2023/07/25 02:33:10;;;;;;;19.38;12.25;;;;;;;21.88;58.92;98957.19;5013858;28;20021;-76
2023/07/25 02:35:35;;;;;;;25.85;13.18;;;;;;;22.11;58.14;98957.75;5015127;28;20033;-76
2023/07/25 02:38:00;;;;;;;22.00;13.32;;;;;;;22.03;58.28;98951.34;5014136;28;20076;-76
2023/07/25 02:40:26;;;;;;;20.17;12.15;;;;;;;21.85;59.10;98962.94;5013270;28;20495;-76
2023/07/25 02:42:52;;;;;;;21.90;12.70;;;;;;;21.86;59.11;98967.41;5014524;28;20413;-76
2023/07/25 02:45:17;;;;;;;25.88;12.82;;;;;;;21.97;58.95;98968.06;5014983;28;20094;-76
2023/07/25 02:47:43;;;;;;;31.70;13.73;;;;;;;21.93;58.85;98961.59;5012908;28;20408;-76
2023/07/25 02:50:09;;;;;;;21.73;13.25;;;;;;;22.08;58.49;98975.66;5013296;28;20108;-76
2023/07/25 02:52:34;;;;;;;26.13;12.43;;;;;;;21.89;58.91;98963.69;5014216;28;20065;-76
2023/07/25 02:55:00;;;;;;;23.55;12.82;;;;;;;22.01;58.80;98982.25;5014043;28;20141;-76
2023/07/25 02:57:25;;;;;;;25.98;11.93;;;;;;;22.11;58.52;98977.66;5013422;28;20030;-76
2023/07/25 02:59:51;;;;;;;22.25;12.65;;;;;;;21.76;59.89;98976.88;5013191;28;20036;-76
2023/07/25 03:02:16;;;;;;;25.17;12.07;;;;;;;21.68;60.16;98990.38;5013780;28;20574;-76
2023/07/25 03:04:42;;;;;;;24.10;13.70;;;;;;;21.34;61.74;98980.50;5014545;28;20406;-76
2023/07/25 03:07:07;;;;;;;27.02;13.38;;;;;;;21.34;62.11;98991.88;5013856;28;20026;-76
2023/07/25 03:09:33;;;;;;;30.65;12.98;;;;;;;21.14;63.01;98986.78;5011187;28;20068;-76
2023/07/25 03:11:58;;;;;;;22.45;11.65;;;;;;;20.93;63.47;98987.75;5014618;28;20417;-76
2023/07/25 03:14:24;;;;;;;24.80;13.23;;;;;;;20.96;63.56;98994.63;5014357;28;20021;-76
2023/07/25 03:16:49;;;;;;;23.15;11.63;;;;;;;21.05;63.48;98994.97;5013296;28;20571;-73
2023/07/25 03:19:15;;;;;;;32.53;14.00;;;;;;;21.09;63.21;99001.44;5011034;28;20030;-74
2023/07/25 03:21:40;;;;;;;30.63;13.85;;;;;;;21.01;63.55;98997.84;5014152;28;20060;-73
2023/07/25 03:24:06;;;;;;;16.33;11.07;;;;;;;20.92;63.70;98993.84;5014487;28;20033;-73
2023/07/25 03:26:31;;;;;;;38.83;13.60;;;;;;;21.20;62.69;98994.84;5013996;28;20061;-73
2023/07/25 03:28:56;;;;;;;25.75;12.32;;;;;;;21.50;61.12;98987.69;5012174;28;20026;-73
2023/07/25 03:31:22;;;;;;;25.15;12.75;;;;;;;21.37;61.38;99002.44;5012609;28;20027;-73
2023/07/25 03:33:47;;;;;;;40.47;13.57;;;;;;;21.91;59.35;98992.53;5013093;28;20068;-73
2023/07/25 03:36:13;;;;;;;24.20;12.43;;;;;;;21.28;61.27;98993.56;5011880;28;20025;-75
2023/07/25 03:38:38;;;;;;;23.13;12.40;;;;;;;21.00;62.43;99001.13;5008186;28;20083;-76
2023/07/25 03:41:04;;;;;;;22.40;13.20;;;;;;;20.90;62.68;98995.09;5011769;28;20072;-76
2023/07/25 03:43:29;;;;;;;21.45;12.73;;;;;;;20.76;63.49;98998.00;5012582;28;20033;-76
2023/07/25 03:45:55;;;;;;;26.33;13.25;;;;;;;20.73;63.99;99004.50;5014020;28;20025;-75
2023/07/25 03:48:20;;;;;;;22.13;13.07;;;;;;;20.67;64.23;98994.81;5013675;28;20034;-75
2023/07/25 03:50:45;;;;;;;25.70;12.88;;;;;;;20.79;63.54;98990.66;5012385;28;20064;-75
2023/07/25 03:53:11;;;;;;;29.55;13.27;;;;;;;20.76;63.46;98987.44;5006334;28;20030;-76
2023/07/25 03:55:36;;;;;;;24.48;13.88;;;;;;;20.84;63.48;98991.06;4997699;28;20026;-75
2023/07/25 03:58:02;;;;;;;24.02;12.40;;;;;;;21.00;63.61;98998.28;5006297;28;20030;-75
2023/07/25 04:00:27;;;;;;;20.98;13.13;;;;;;;21.21;62.77;98994.44;5011091;28;20121;-74
2023/07/25 04:02:53;;;;;;;24.42;13.25;;;;;;;21.14;63.33;98995.31;5024130;28;20092;-75
2023/07/25 04:05:18;;;;;;;23.23;14.45;;;;;;;21.13;63.45;98995.72;5012019;28;20022;-76
2023/07/25 04:07:44;;;;;;;25.30;13.48;;;;;;;21.05;63.84;98992.13;5013274;28;20030;-77
2023/07/25 04:10:10;;;;;;;21.48;12.13;;;;;;;21.07;63.79;98986.03;5005831;28;20041;-76
2023/07/25 04:12:35;;;;;;;29.00;13.32;;;;;;;21.08;63.83;98990.50;5018770;28;20116;-80
2023/07/25 04:15:01;;;;;;;25.95;13.98;;;;;;;20.93;64.83;98995.47;5015634;28;20037;-79
2023/07/25 04:17:26;;;;;;;24.40;12.00;;;;;;;21.23;63.79;98997.66;5014341;28;20109;-79
2023/07/25 04:19:52;;;;;;;27.05;13.40;;;;;;;21.38;63.12;98986.97;5010967;28;20037;-78
2023/07/25 04:22:17;;;;;;;35.67;13.93;;;;;;;21.50;62.75;98987.69;5013244;28;20465;-78
2023/07/25 04:24:42;;;;;;;33.08;12.68;;;;;;;21.58;62.11;98986.34;5013171;28;20397;-76
2023/07/25 04:27:08;;;;;;;28.42;13.00;;;;;;;21.58;62.13;98994.88;5010075;28;20037;-76
2023/07/25 04:29:33;;;;;;;29.23;12.10;;;;;;;21.80;61.50;98991.84;5007896;28;20025;-77
2023/07/25 04:31:59;;;;;;;22.52;12.65;;;;;;;21.83;61.17;98988.16;5002469;28;20493;-80
2023/07/25 04:34:24;;;;;;;21.27;12.07;;;;;;;21.90;60.93;98992.94;5002878;28;20042;-77
2023/07/25 04:36:50;;;;;;;27.70;13.77;;;;;;;21.85;61.08;98989.34;5012966;28;20069;-77
2023/07/25 04:39:15;;;;;;;22.80;13.73;;;;;;;22.06;60.50;98995.22;5011790;28;20480;-77
2023/07/25 04:41:41;;;;;;;31.95;13.15;;;;;;;21.96;60.84;98985.56;5004709;28;20030;-77
2023/07/25 04:44:07;;;;;;;30.95;12.25;;;;;;;22.18;60.63;98988.16;5001388;28;20045;-77
2023/07/25 04:46:32;;;;;;;26.75;13.65;;;;;;;22.18;60.19;98979.63;5003272;28;20033;-76
2023/07/25 04:48:57;;;;;;;29.67;13.45;;;;;;;22.33;59.84;98980.25;5011019;28;20054;-76
2023/07/25 04:51:23;;;;;;;32.10;13.05;;;;;;;22.61;58.72;98983.94;5010512;28;20042;-76
2023/07/25 04:53:48;;;;;;;31.92;12.73;;;;;;;22.76;59.03;98988.19;5004783;28;20038;-74
2023/07/25 04:56:14;;;;;;;27.50;13.07;;;;;;;22.70;59.01;98987.88;5012683;28;20029;-71
2023/07/25 04:58:41;;;;;;;22.45;12.88;;;;;;;22.77;59.29;98989.78;5011912;28;20034;-72
2023/07/25 05:01:07;;;;;;;22.05;12.63;;;;;;;22.88;59.05;98991.69;5009280;28;20044;-71
2023/07/25 05:03:32;;;;;;;21.27;12.48;;;;;;;22.72;59.80;98990.28;5009095;28;20485;-72
2023/07/25 05:05:58;;;;;;;24.27;12.68;;;;;;;22.91;59.11;98990.81;5006880;28;20032;-71
2023/07/25 05:08:23;;;;;;;28.27;12.82;;;;;;;23.18;58.40;98992.84;5001298;28;20041;-71
2023/07/25 05:10:53;;;;;;;25.52;14.38;;;;;;;23.46;57.22;98993.59;5008752;28;20026;-70
2023/07/25 05:13:19;;;;;;;27.70;10.80;;;;;;;23.66;57.07;99000.16;5006640;28;20076;-71
2023/07/25 05:15:45;;;;;;;21.80;12.75;;;;;;;23.61;56.50;98994.16;5005103;28;20041;-71
2023/07/25 05:18:10;;;;;;;19.30;11.77;;;;;;;23.75;56.23;98998.75;5002683;28;20030;-71
2023/07/25 05:20:36;;;;;;;23.88;11.38;;;;;;;23.83;55.51;98994.53;4994004;28;20479;-70
2023/07/25 05:23:01;;;;;;;18.85;11.93;;;;;;;23.94;55.82;99003.69;5005466;28;20386;-71
2023/07/25 05:25:27;;;;;;;22.15;12.40;;;;;;;24.04;55.32;98998.25;5007633;28;20025;-70
2023/07/25 05:27:52;;;;;;;20.23;11.90;;;;;;;24.18;55.34;98999.97;5010345;28;20113;-69
2023/07/25 05:30:18;;;;;;;17.70;11.00;;;;;;;24.50;54.49;99002.19;5010362;28;20026;-74
2023/07/25 05:32:43;;;;;;;24.15;11.68;;;;;;;24.77;53.51;99006.91;5004343;28;20042;-69
2023/07/25 05:35:09;;;;;;;21.58;10.90;;;;;;;24.96;53.05;98998.69;4999241;28;20061;-69
2023/07/25 05:37:39;;;;;;;17.35;11.23;;;;;;;25.16;52.45;99004.34;5006110;28;20037;-70
2023/07/25 05:40:05;;;;;;;19.58;11.45;;;;;;;25.28;51.93;99005.66;4991063;28;20113;-72
2023/07/25 05:42:31;;;;;;;18.83;11.57;;;;;;;25.52;51.52;99002.63;5003098;28;20061;-72
2023/07/25 05:44:58;;;;;;;19.27;10.88;;;;;;;25.88;52.16;98997.97;4997223;28;20087;-71
2023/07/25 05:47:24;;;;;;;20.15;11.35;;;;;;;26.01;51.60;98993.13;5004817;28;20037;-72
2023/07/25 05:49:49;;;;;;;22.30;11.38;;;;;;;26.40;50.35;98995.31;5008874;28;20022;-72
2023/07/25 05:52:16;;;;;;;21.27;11.45;;;;;;;26.33;49.77;98990.59;5007808;28;20419;-76
2023/07/25 05:54:42;;;;;;;17.10;11.25;;;;;;;26.59;49.03;98988.56;5008804;28;20033;-76
2023/07/25 05:57:07;;;;;;;21.25;12.45;;;;;;;26.67;49.09;98986.28;5004396;28;20030;-79
2023/07/25 05:59:33;;;;;;;19.42;12.32;;;;;;;26.48;49.65;98986.03;5023377;28;20040;-77
2023/07/25 06:01:58;;;;;;;23.55;11.57;;;;;;;26.68;50.74;98985.03;4997375;28;20549;-75
2023/07/25 06:04:24;;;;;;;19.55;11.35;;;;;;;26.69;50.61;98983.75;5004403;28;20041;-75
2023/07/25 06:06:49;;;;;;;370.55;43.28;;;;;;;26.70;50.31;98979.63;5007192;28;20415;-77
2023/07/25 06:09:15;;;;;;;26.25;12.45;;;;;;;26.84;49.02;98972.63;5003799;28;20042;-78
2023/07/25 06:11:40;;;;;;;28.35;12.57;;;;;;;26.74;49.23;98974.56;5019051;28;20030;-77
2023/07/25 06:14:06;;;;;;;21.40;11.35;;;;;;;26.63;49.64;98971.25;5020780;28;20381;-75
2023/07/25 06:16:31;;;;;;;29.10;12.02;;;;;;;26.99;50.84;98963.59;5021065;28;20469;-79
2023/07/25 06:18:57;;;;;;;18.48;12.23;;;;;;;27.16;48.40;98962.19;5000041;28;20505;-75
2023/07/25 06:21:22;;;;;;;22.35;11.30;;;;;;;27.49;47.53;98969.66;5010037;28;20028;-78
2023/07/25 06:23:48;;;;;;;28.20;12.07;;;;;;;27.22;48.40;98958.75;5009999;28;20026;-79
2023/07/25 06:26:14;;;;;;;14.48;11.15;;;;;;;27.48;49.78;98959.44;5010076;28;20056;-79
2023/07/25 06:28:39;;;;;;;20.42;10.55;;;;;;;27.68;47.67;98956.31;5009959;28;20087;-76
2023/07/25 06:31:05;;;;;;;22.35;12.00;;;;;;;27.65;47.34;98960.13;5008936;28;20087;-74
2023/07/25 06:33:31;;;;;;;18.75;11.30;;;;;;;28.01;46.35;98960.88;5008660;28;20096;-78
2023/07/25 06:35:57;;;;;;;25.75;12.35;;;;;;;28.12;46.00;98952.66;5006815;28;20040;-79
2023/07/25 06:38:22;;;;;;;31.85;11.85;;;;;;;28.19;45.92;98957.34;5008549;28;20022;-78
2023/07/25 06:40:48;;;;;;;22.88;11.18;;;;;;;28.03;46.33;98959.13;5002503;28;20026;-77
2023/07/25 06:43:13;;;;;;;17.33;11.02;;;;;;;27.75;46.72;98943.75;4992127;28;20047;-76
2023/07/25 06:45:39;;;;;;;17.88;11.27;;;;;;;28.11;46.93;98933.78;4996917;28;20026;-75
2023/07/25 06:48:04;;;;;;;19.17;10.55;;;;;;;28.55;46.34;98944.44;5004024;28;20026;-75
2023/07/25 06:50:32;;;;;;;15.57;10.60;;;;;;;28.55;45.45;98946.50;5004701;28;20028;-76
2023/07/25 06:52:58;;;;;;;20.48;10.10;;;;;;;28.28;46.10;98936.47;5000125;28;20523;-74
2023/07/25 06:55:23;;;;;;;19.48;11.48;;;;;;;28.08;46.43;98934.72;5008158;28;20058;-75
2023/07/25 06:57:49;;;;;;;15.18;11.15;;;;;;;27.95;46.78;98942.63;5000676;28;20021;-75
2023/07/25 07:00:14;;;;;;;25.13;11.13;;;;;;;28.26;46.11;98936.16;4999124;28;20030;-75
2023/07/25 07:02:41;;;;;;;22.42;11.05;;;;;;;28.26;47.39;98925.44;5007496;28;20168;-76
2023/07/25 07:05:07;;;;;;;22.40;11.57;;;;;;;28.01;45.57;98920.66;5002855;28;20026;-73
2023/07/25 07:07:33;;;;;;;17.58;11.18;;;;;;;28.41;45.52;98922.00;5006991;28;20550;-73
2023/07/25 07:09:58;;;;;;;19.10;11.13;;;;;;;28.52;44.34;98918.72;5010407;28;20034;-75
2023/07/25 07:12:24;;;;;;;17.45;10.75;;;;;;;28.39;45.30;98913.03;5012000;28;20026;-75
2023/07/25 07:14:50;;;;;;;20.42;11.00;;;;;;;28.40;46.14;98909.72;5010242;28;20049;-74
2023/07/25 07:17:17;;;;;;;14.13;10.40;;;;;;;28.32;46.32;98907.59;4996383;28;20025;-75
2023/07/25 07:19:42;;;;;;;13.40;10.57;;;;;;;28.56;45.89;98923.03;5000392;28;20566;-75
2023/07/25 07:22:08;;;;;;;18.30;10.88;;;;;;;28.79;45.59;98894.19;5001128;28;20026;-75
2023/07/25 07:24:33;;;;;;;27.98;11.45;;;;;;;28.49;45.97;98911.03;5004453;28;20470;-75
2023/07/25 07:26:59;;;;;;;19.08;12.68;;;;;;;28.73;47.86;98894.00;5005019;28;20026;-75
2023/07/25 07:29:24;;;;;;;16.27;10.95;;;;;;;29.00;45.22;98901.94;5012004;28;20026;-75
2023/07/25 07:31:50;;;;;;;14.77;11.65;;;;;;;29.38;44.52;98894.16;5011833;28;20030;-75
2023/07/25 07:34:17;;;;;;;18.67;11.25;;;;;;;28.53;45.51;98897.31;5012320;28;20088;-75
2023/07/25 07:36:43;;;;;;;17.67;11.13;;;;;;;29.21;44.41;98892.84;5012076;28;20504;-75
2023/07/25 07:39:08;;;;;;;19.92;10.82;;;;;;;29.56;44.89;98886.81;5012960;28;20036;-75
2023/07/25 07:41:34;;;;;;;34.00;11.45;;;;;;;29.82;45.04;98886.47;5010648;28;20033;-75
2023/07/25 07:44:00;;;;;;;30.40;13.23;;;;;;;30.03;44.38;98878.88;5013701;28;20481;-75
2023/07/25 07:46:30;;;;;;;19.98;11.43;;;;;;;30.22;42.49;98878.88;5010249;28;20319;-75
2023/07/25 07:48:58;;;;;;;;;;;;;;;30.37;42.52;98876.88;5013013;28;20092;-75
2023/07/25 07:51:24;;;;;;;16.90;11.00;;;;;;;30.37;43.06;98865.34;5010355;28;19913;-75
2023/07/25 07:53:50;;;;;;;18.15;11.52;;;;;;;30.61;45.24;98869.59;5010475;28;20037;-75
2023/07/25 07:56:16;;;;;;;14.63;9.82;;;;;;;30.59;41.91;98854.81;5012548;28;20196;-75
2023/07/25 07:58:41;;;;;;;21.15;10.60;;;;;;;30.56;43.02;98845.09;5009944;28;20030;-75
2023/07/25 08:01:18;;;;;;;16.17;10.63;;;;;;;30.19;42.16;98853.91;5010994;28;20709;-75
2023/07/25 08:03:44;;;;;;;16.00;10.55;;;;;;;30.28;42.48;98845.19;5012124;28;20072;-75
2023/07/25 08:06:10;;;;;;;18.30;10.65;;;;;;;30.95;41.22;98850.97;5012230;28;20067;-74
2023/07/25 08:08:36;;;;;;;18.65;11.13;;;;;;;31.26;41.79;98839.53;5012362;28;20468;-75
2023/07/25 08:11:01;;;;;;;21.55;11.75;;;;;;;31.44;41.11;98847.25;5010479;28;20026;-75
2023/07/25 08:13:28;;;;;;;15.30;9.65;;;;;;;31.72;39.50;98841.97;5010848;28;20087;-75
2023/07/25 08:15:53;;;;;;;15.35;10.45;;;;;;;31.70;42.23;98833.00;5009699;28;20029;-75
2023/07/25 08:18:19;;;;;;;19.55;10.85;;;;;;;32.00;39.42;98835.94;5009652;28;20398;-74
2023/07/25 08:20:45;;;;;;;19.08;10.63;;;;;;;32.33;38.97;98828.31;5009311;28;20022;-75
2023/07/25 08:23:12;;;;;;;34.85;11.48;;;;;;;32.57;39.25;98827.38;5011146;28;20048;-75
2023/07/25 08:25:41;;;;;;;26.10;11.57;;;;;;;32.37;38.77;98831.03;5000321;28;20026;-74
2023/07/25 08:28:06;;;;;;;21.07;11.93;;;;;;;32.64;37.14;98821.16;5007411;28;20423;-75
2023/07/25 08:30:32;;;;;;;12.95;9.75;;;;;;;32.39;37.91;98811.84;5008683;28;20358;-74
2023/07/25 08:32:57;;;;;;;18.77;9.95;;;;;;;32.62;37.41;98820.88;5006670;28;20528;-75
2023/07/25 08:35:23;;;;;;;20.27;11.02;;;;;;;32.81;36.41;98809.81;5008778;28;20041;-75
2023/07/25 08:37:49;;;;;;;17.27;10.48;;;;;;;32.89;35.60;98807.31;5006850;28;20041;-75
2023/07/25 08:40:15;;;;;;;19.85;10.77;;;;;;;33.12;36.12;98798.91;5005654;28;20057;-74
2023/07/25 08:42:45;;;;;;;22.77;11.48;;;;;;;33.03;36.75;98806.47;4993962;28;20100;-73
2023/07/25 08:45:11;;;;;;;18.88;11.15;;;;;;;33.12;35.68;98802.59;4989912;28;20564;-74
2023/07/25 08:47:40;;;;;;;19.45;11.02;;;;;;;33.33;33.96;98802.59;4990026;28;20038;-75
2023/07/25 08:50:13;;;;;;;24.55;11.23;;;;;;;33.48;34.41;98790.91;5001741;28;20087;-74
2023/07/25 08:52:40;;;;;;;26.20;10.88;;;;;;;33.64;33.93;98797.41;5002920;28;20042;-74
2023/07/25 08:55:07;;;;;;;18.27;10.73;;;;;;;33.65;34.32;98796.09;5001200;28;20034;-75
2023/07/25 08:57:32;;;;;;;28.10;11.52;;;;;;;33.79;33.94;98788.53;4999607;28;20026;-75
2023/07/25 08:59:58;;;;;;;20.40;11.43;;;;;;;33.97;32.94;98790.28;5001051;28;20041;-74
2023/07/25 09:02:26;;;;;;;21.83;11.43;;;;;;;33.98;33.16;98786.91;4999364;28;20410;-73
2023/07/25 09:04:52;;;;;;;23.83;11.55;;;;;;;34.02;32.04;98784.56;5002469;28;20408;-76
2023/07/25 09:07:18;;;;;;;23.63;10.98;;;;;;;34.33;32.94;98781.34;5008385;28;20416;-76
2023/07/25 09:09:43;;;;;;;18.23;10.70;;;;;;;34.37;32.10;98776.09;5015103;28;20025;-76
2023/07/25 09:12:09;;;;;;;33.97;11.68;;;;;;;34.22;33.30;98771.25;5007617;28;20034;-79
2023/07/25 09:14:36;;;;;;;20.13;10.73;;;;;;;34.07;32.34;98779.34;5015435;28;20121;-77
2023/07/25 09:17:04;;;;;;;15.48;10.02;;;;;;;33.74;33.16;98785.09;5009439;28;20044;-76
2023/07/25 09:19:30;;;;;;;15.75;10.65;;;;;;;33.71;33.96;98765.84;5009214;28;20053;-77
2023/07/25 09:21:58;;;;;;;20.75;11.02;;;;;;;34.13;33.63;98772.25;5013295;28;20029;-79
2023/07/25 09:24:44;;;;;;;19.75;11.20;;;;;;;34.54;32.15;98768.31;5008669;28;20065;-79
2023/07/25 09:27:16;;;;;;;25.05;11.45;;;;;;;34.65;32.42;98763.91;5009362;28;20068;-77
2023/07/25 09:29:42;;;;;;;25.83;10.55;;;;;;;34.56;33.78;98762.78;5005432;28;20041;-76
2023/07/25 09:32:18;;;;;;;14.02;9.82;;;;;;;34.74;32.40;98762.88;5006934;28;20038;-78
2023/07/25 09:34:45;;;;;;;15.50;10.85;;;;;;;34.72;33.27;98749.69;5008510;28;20041;-76
2023/07/25 09:37:11;;;;;;;15.63;9.68;;;;;;;34.71;32.47;98761.81;5008545;28;20058;-78
2023/07/25 09:39:36;;;;;;;16.73;10.13;;;;;;;34.70;32.52;98763.13;5007790;28;20519;-78
2023/07/25 09:42:02;;;;;;;36.97;10.95;;;;;;;34.46;32.01;98761.38;5011459;28;20525;-77
2023/07/25 09:44:32;;;;;;;17.95;10.68;;;;;;;34.62;33.14;98762.81;5010503;28;20022;-79
2023/07/25 09:46:57;;;;;;;;;;;;;;;35.08;32.55;98763.81;5011380;28;20083;-76
2023/07/25 09:49:22;;;;;;;29.50;10.90;;;;;;;34.75;31.71;98755.75;5007246;28;20409;-78
2023/07/25 09:52:03;;;;;;;15.50;9.30;;;;;;;34.97;32.16;98764.56;5005407;28;20464;-74
2023/07/25 09:54:28;;;;;;;19.70;10.15;;;;;;;35.36;31.96;98748.59;5006015;28;20034;-74
2023/07/25 09:56:54;;;;;;;15.52;11.40;;;;;;;34.75;30.27;98742.00;5008589;28;20036;-74
2023/07/25 09:59:20;;;;;;;17.98;10.00;;;;;;;34.36;31.39;98742.59;5006093;28;20053;-74
2023/07/25 10:01:46;;;;;;;22.30;10.82;;;;;;;34.57;32.99;98744.06;5005242;28;20171;-74
2023/07/25 10:04:15;;;;;;;15.10;9.13;;;;;;;35.32;30.66;98729.81;5010625;28;20440;-76
2023/07/25 10:06:42;;;;;;;16.35;10.00;;;;;;;35.46;29.86;98728.78;5006570;28;20100;-74
2023/07/25 10:09:09;;;;;;;17.55;10.02;;;;;;;35.53;30.49;98724.56;5005867;28;20064;-74
2023/07/25 10:11:35;;;;;;;24.55;10.85;;;;;;;35.69;30.31;98712.16;5000094;28;20033;-74
2023/07/25 10:14:01;;;;;;;21.67;10.77;;;;;;;35.87;29.46;98718.75;5001169;28;20488;-74
2023/07/25 10:16:27;;;;;;;17.30;10.20;;;;;;;35.96;29.59;98711.88;5002985;28;20072;-74
2023/07/25 10:18:57;;;;;;;22.08;11.20;;;;;;;35.88;29.62;98714.53;5007543;28;20038;-74
2023/07/25 10:21:27;;;;;;;20.02;10.60;;;;;;;36.16;29.34;98710.81;4996841;28;20374;-74
2023/07/25 10:23:58;;;;;;;15.27;9.57;;;;;;;36.33;29.18;98707.06;5004475;28;20031;-74
2023/07/25 10:26:23;;;;;;;16.05;9.32;;;;;;;36.18;28.06;98698.63;4999935;28;20104;-74
2023/07/25 10:28:49;;;;;;;24.02;11.07;;;;;;;36.36;28.62;98694.34;4992654;28;20474;-74
2023/07/25 10:31:23;;;;;;;15.95;9.32;;;;;;;36.45;27.80;98682.41;4998076;28;20481;-74
2023/07/25 10:33:58;;;;;;;18.40;10.18;;;;;;;36.84;27.43;98688.63;5002385;28;21457;-74
2023/07/25 10:36:25;;;;;;;15.68;9.50;;;;;;;36.81;26.98;98691.28;5001179;28;20088;-74
2023/07/25 10:38:52;;;;;;;18.23;9.45;;;;;;;36.72;27.70;98671.19;5000448;28;20085;-74
2023/07/25 10:41:21;;;;;;;29.20;10.60;;;;;;;36.77;27.50;98672.50;5000547;28;20029;-77
2023/07/25 10:43:48;;;;;;;19.03;10.30;;;;;;;36.93;27.82;98657.03;5004706;28;20072;-77
2023/07/25 10:46:35;;;;;;;15.85;9.55;;;;;;;36.74;28.58;98670.66;5002899;28;20034;-77
2023/07/25 10:49:14;;;;;;;14.73;9.55;;;;;;;36.72;27.23;98658.75;5003040;28;20527;-77
2023/07/25 10:51:51;;;;;;;17.10;9.65;;;;;;;36.65;29.12;98651.38;5002580;28;20022;-77
2023/07/25 10:54:18;;;;;;;12.77;9.02;;;;;;;36.86;28.27;98645.94;5004438;28;20034;-77
2023/07/25 10:57:14;;;;;;;13.73;9.10;;;;;;;37.19;27.59;98641.25;5003655;28;20560;-77
2023/07/25 11:00:00;;;;;;;18.45;9.63;;;;;;;37.18;28.33;98633.84;4990979;28;20029;-77
2023/07/25 11:02:34;;;;;;;18.63;9.85;;;;;;;37.13;28.15;98623.03;5004986;28;20050;-77
2023/07/25 11:05:26;;;;;;;16.77;9.98;;;;;;;37.13;28.94;98628.06;5007605;28;20025;-77
2023/07/25 11:07:54;;;;;;;16.48;9.40;;;;;;;37.40;28.33;98625.47;5005866;28;20048;-77
2023/07/25 11:10:24;;;;;;;19.85;8.98;;;;;;;37.31;29.01;98624.50;5010832;28;20056;-77
2023/07/25 11:12:53;;;;;;;22.58;9.95;;;;;;;37.59;27.79;98625.56;5011050;28;20061;-77
2023/07/25 11:15:19;;;;;;;15.77;9.27;;;;;;;37.74;27.50;98608.47;5002203;28;20073;-78